sensor_id;sensor_type;location;lat;lon;timestamp;temperature;humidity
15262;DHT22;7733;51.554;13.590;2023-09-19T00:00:42;17.40;99.90
15262;DHT22;7733;51.554;13.590;2023-09-19T00:03:09;17.40;99.90
15262;DHT22;7733;51.554;13.590;2023-09-19T00:05:38;17.40;99.90
15262;DHT22;7733;51.554;13.590;2023-09-19T00:08:05;17.60;99.90
15262;DHT22;7733;51.554;13.590;2023-09-19T00:10:32;17.60;99.90
15262;DHT22;7733;51.554;13.590;2023-09-19T00:13:03;17.70;99.90
15262;DHT22;7733;51.554;13.590;2023-09-19T00:15:47;17.30;99.90
15262;DHT22;7733;51.554;13.590;2023-09-19T00:18:17;17.20;99.90
15262;DHT22;7733;51.554;13.590;2023-09-19T00:20:46;17.10;99.90
15262;DHT22;7733;51.554;13.590;2023-09-19T00:23:13;16.90;99.90
15262;DHT22;7733;51.554;13.590;2023-09-19T00:25:39;17.00;99.90
15262;DHT22;7733;51.554;13.590;2023-09-19T00:28:06;17.10;99.90
15262;DHT22;7733;51.554;13.590;2023-09-19T00:30:33;17.20;99.90
15262;DHT22;7733;51.554;13.590;2023-09-19T00:33:00;17.20;99.90
15262;DHT22;7733;51.554;13.590;2023-09-19T00:35:26;17.10;99.90
15262;DHT22;7733;51.554;13.590;2023-09-19T00:37:56;17.10;99.90
15262;DHT22;7733;51.554;13.590;2023-09-19T00:40:22;17.10;99.90
15262;DHT22;7733;51.554;13.590;2023-09-19T00:42:48;17.20;99.90
15262;DHT22;7733;51.554;13.590;2023-09-19T00:45:16;17.20;99.90
15262;DHT22;7733;51.554;13.590;2023-09-19T00:47:51;17.20;99.90
15262;DHT22;7733;51.554;13.590;2023-09-19T00:50:18;17.20;99.90
15262;DHT22;7733;51.554;13.590;2023-09-19T00:52:48;17.20;99.90
15262;DHT22;7733;51.554;13.590;2023-09-19T00:55:15;17.20;99.90
15262;DHT22;7733;51.554;13.590;2023-09-19T00:57:45;17.10;99.90
15262;DHT22;7733;51.554;13.590;2023-09-19T01:00:12;17.10;99.90
15262;DHT22;7733;51.554;13.590;2023-09-19T01:02:42;17.20;99.90
15262;DHT22;7733;51.554;13.590;2023-09-19T01:05:09;17.30;99.90
15262;DHT22;7733;51.554;13.590;2023-09-19T01:07:36;17.30;99.90
15262;DHT22;7733;51.554;13.590;2023-09-19T01:10:06;17.30;99.90
15262;DHT22;7733;51.554;13.590;2023-09-19T01:29:51;17.10;99.90
15262;DHT22;7733;51.554;13.590;2023-09-19T01:32:21;17.10;99.90
15262;DHT22;7733;51.554;13.590;2023-09-19T01:34:54;17.10;99.90
15262;DHT22;7733;51.554;13.590;2023-09-19T01:37:29;17.00;99.90
15262;DHT22;7733;51.554;13.590;2023-09-19T01:40:06;17.00;99.90
15262;DHT22;7733;51.554;13.590;2023-09-19T01:51:06;16.90;99.90
15262;DHT22;7733;51.554;13.590;2023-09-19T01:56:36;16.80;99.90
15262;DHT22;7733;51.554;13.590;2023-09-19T01:59:13;16.80;99.90
15262;DHT22;7733;51.554;13.590;2023-09-19T02:01:42;16.80;99.90
15262;DHT22;7733;51.554;13.590;2023-09-19T02:04:11;16.80;99.90
15262;DHT22;7733;51.554;13.590;2023-09-19T02:06:40;16.80;99.90
15262;DHT22;7733;51.554;13.590;2023-09-19T02:09:07;17.00;99.90
15262;DHT22;7733;51.554;13.590;2023-09-19T02:11:34;17.00;99.90
15262;DHT22;7733;51.554;13.590;2023-09-19T02:14:00;17.10;99.90
15262;DHT22;7733;51.554;13.590;2023-09-19T02:16:28;17.20;99.90
15262;DHT22;7733;51.554;13.590;2023-09-19T02:18:54;17.30;99.90
15262;DHT22;7733;51.554;13.590;2023-09-19T02:21:19;17.30;99.90
15262;DHT22;7733;51.554;13.590;2023-09-19T02:23:47;17.30;99.90
15262;DHT22;7733;51.554;13.590;2023-09-19T02:26:13;17.30;99.90
15262;DHT22;7733;51.554;13.590;2023-09-19T02:28:39;17.40;99.90
15262;DHT22;7733;51.554;13.590;2023-09-19T02:31:05;17.40;99.90
15262;DHT22;7733;51.554;13.590;2023-09-19T02:33:31;17.40;99.90
15262;DHT22;7733;51.554;13.590;2023-09-19T02:35:58;17.40;99.90
15262;DHT22;7733;51.554;13.590;2023-09-19T02:38:25;17.50;99.90
15262;DHT22;7733;51.554;13.590;2023-09-19T02:40:55;17.50;99.90
15262;DHT22;7733;51.554;13.590;2023-09-19T02:43:21;17.50;99.90
15262;DHT22;7733;51.554;13.590;2023-09-19T02:45:48;17.40;99.90
15262;DHT22;7733;51.554;13.590;2023-09-19T02:48:15;17.30;99.90
15262;DHT22;7733;51.554;13.590;2023-09-19T02:50:42;17.20;99.90
15262;DHT22;7733;51.554;13.590;2023-09-19T02:53:09;17.00;99.90
15262;DHT22;7733;51.554;13.590;2023-09-19T02:55:38;16.90;99.90
15262;DHT22;7733;51.554;13.590;2023-09-19T02:58:06;16.90;99.90
15262;DHT22;7733;51.554;13.590;2023-09-19T03:00:40;16.90;99.90
15262;DHT22;7733;51.554;13.590;2023-09-19T03:03:08;17.00;99.90
15262;DHT22;7733;51.554;13.590;2023-09-19T03:05:34;17.00;99.90
15262;DHT22;7733;51.554;13.590;2023-09-19T03:08:00;17.10;99.90
15262;DHT22;7733;51.554;13.590;2023-09-19T03:10:27;17.20;99.90
15262;DHT22;7733;51.554;13.590;2023-09-19T03:12:54;17.20;99.90
15262;DHT22;7733;51.554;13.590;2023-09-19T03:15:20;17.30;99.90
15262;DHT22;7733;51.554;13.590;2023-09-19T03:17:48;17.30;99.90
15262;DHT22;7733;51.554;13.590;2023-09-19T03:20:15;17.30;99.90
15262;DHT22;7733;51.554;13.590;2023-09-19T03:22:43;17.30;99.90
15262;DHT22;7733;51.554;13.590;2023-09-19T03:25:09;17.30;99.90
15262;DHT22;7733;51.554;13.590;2023-09-19T03:27:37;17.40;99.90
15262;DHT22;7733;51.554;13.590;2023-09-19T03:30:05;17.40;99.90
15262;DHT22;7733;51.554;13.590;2023-09-19T03:32:36;17.40;99.90
15262;DHT22;7733;51.554;13.590;2023-09-19T03:35:03;17.40;99.90
15262;DHT22;7733;51.554;13.590;2023-09-19T03:37:32;17.40;99.90
15262;DHT22;7733;51.554;13.590;2023-09-19T03:40:01;17.40;99.90
15262;DHT22;7733;51.554;13.590;2023-09-19T03:42:30;17.40;99.90
15262;DHT22;7733;51.554;13.590;2023-09-19T03:44:56;17.40;99.90
15262;DHT22;7733;51.554;13.590;2023-09-19T03:47:22;17.40;99.90
15262;DHT22;7733;51.554;13.590;2023-09-19T03:49:48;17.40;99.90
15262;DHT22;7733;51.554;13.590;2023-09-19T03:52:14;17.40;99.90
15262;DHT22;7733;51.554;13.590;2023-09-19T03:54:42;17.30;99.90
15262;DHT22;7733;51.554;13.590;2023-09-19T03:57:08;17.30;99.90
15262;DHT22;7733;51.554;13.590;2023-09-19T03:59:34;17.40;99.90
15262;DHT22;7733;51.554;13.590;2023-09-19T04:02:01;17.40;99.90
15262;DHT22;7733;51.554;13.590;2023-09-19T04:04:27;17.20;99.90
15262;DHT22;7733;51.554;13.590;2023-09-19T04:06:54;17.10;99.90
15262;DHT22;7733;51.554;13.590;2023-09-19T04:09:20;17.10;99.90
15262;DHT22;7733;51.554;13.590;2023-09-19T04:11:46;17.10;99.90
15262;DHT22;7733;51.554;13.590;2023-09-19T04:14:11;17.00;99.90
15262;DHT22;7733;51.554;13.590;2023-09-19T04:16:37;16.80;99.90
15262;DHT22;7733;51.554;13.590;2023-09-19T04:19:04;17.00;99.90
15262;DHT22;7733;51.554;13.590;2023-09-19T04:21:30;17.00;99.90
15262;DHT22;7733;51.554;13.590;2023-09-19T04:23:56;17.00;99.90
15262;DHT22;7733;51.554;13.590;2023-09-19T04:26:22;17.10;99.90
15262;DHT22;7733;51.554;13.590;2023-09-19T04:28:47;17.10;99.90
15262;DHT22;7733;51.554;13.590;2023-09-19T04:31:13;17.10;99.90
15262;DHT22;7733;51.554;13.590;2023-09-19T04:33:39;17.10;99.90
15262;DHT22;7733;51.554;13.590;2023-09-19T04:36:05;17.10;99.90
15262;DHT22;7733;51.554;13.590;2023-09-19T04:38:33;17.10;99.90
15262;DHT22;7733;51.554;13.590;2023-09-19T04:40:59;17.10;99.90
15262;DHT22;7733;51.554;13.590;2023-09-19T04:43:26;17.00;99.90
15262;DHT22;7733;51.554;13.590;2023-09-19T04:45:52;17.10;99.90
15262;DHT22;7733;51.554;13.590;2023-09-19T04:48:22;17.10;99.90
15262;DHT22;7733;51.554;13.590;2023-09-19T04:50:50;17.10;99.90
15262;DHT22;7733;51.554;13.590;2023-09-19T04:53:17;17.00;99.90
15262;DHT22;7733;51.554;13.590;2023-09-19T04:55:49;17.10;99.90
15262;DHT22;7733;51.554;13.590;2023-09-19T04:58:16;17.00;99.90
15262;DHT22;7733;51.554;13.590;2023-09-19T05:00:43;17.00;99.90
15262;DHT22;7733;51.554;13.590;2023-09-19T05:03:08;17.00;99.90
15262;DHT22;7733;51.554;13.590;2023-09-19T05:05:34;17.00;99.90
15262;DHT22;7733;51.554;13.590;2023-09-19T05:08:00;16.90;99.90
15262;DHT22;7733;51.554;13.590;2023-09-19T05:10:26;16.90;99.90
15262;DHT22;7733;51.554;13.590;2023-09-19T05:12:55;16.90;99.90
15262;DHT22;7733;51.554;13.590;2023-09-19T05:15:20;16.90;99.90
15262;DHT22;7733;51.554;13.590;2023-09-19T05:17:50;16.90;99.90
15262;DHT22;7733;51.554;13.590;2023-09-19T05:20:17;16.90;99.90
15262;DHT22;7733;51.554;13.590;2023-09-19T05:23:00;16.90;99.90
15262;DHT22;7733;51.554;13.590;2023-09-19T05:25:34;16.80;99.90
15262;DHT22;7733;51.554;13.590;2023-09-19T05:28:05;16.90;99.90
15262;DHT22;7733;51.554;13.590;2023-09-19T05:30:33;16.80;99.90
15262;DHT22;7733;51.554;13.590;2023-09-19T05:33:04;16.80;99.90
15262;DHT22;7733;51.554;13.590;2023-09-19T05:35:31;16.80;99.90
15262;DHT22;7733;51.554;13.590;2023-09-19T05:37:57;16.80;99.90
15262;DHT22;7733;51.554;13.590;2023-09-19T05:40:24;16.80;99.90
15262;DHT22;7733;51.554;13.590;2023-09-19T05:42:50;16.80;99.90
15262;DHT22;7733;51.554;13.590;2023-09-19T05:45:16;16.80;99.90
15262;DHT22;7733;51.554;13.590;2023-09-19T05:47:50;16.90;99.90
15262;DHT22;7733;51.554;13.590;2023-09-19T05:50:29;16.90;99.90
15262;DHT22;7733;51.554;13.590;2023-09-19T05:52:55;16.90;99.90
15262;DHT22;7733;51.554;13.590;2023-09-19T05:55:23;16.90;99.90
15262;DHT22;7733;51.554;13.590;2023-09-19T05:57:54;16.90;99.90
15262;DHT22;7733;51.554;13.590;2023-09-19T06:00:23;16.90;99.90
15262;DHT22;7733;51.554;13.590;2023-09-19T06:02:55;16.90;99.90
15262;DHT22;7733;51.554;13.590;2023-09-19T06:05:23;16.90;99.90
15262;DHT22;7733;51.554;13.590;2023-09-19T06:07:50;16.90;99.90
15262;DHT22;7733;51.554;13.590;2023-09-19T06:10:17;16.80;99.90
15262;DHT22;7733;51.554;13.590;2023-09-19T06:12:46;16.90;99.90
15262;DHT22;7733;51.554;13.590;2023-09-19T06:15:13;16.90;99.90
15262;DHT22;7733;51.554;13.590;2023-09-19T06:17:54;17.00;99.90
15262;DHT22;7733;51.554;13.590;2023-09-19T06:20:21;17.00;99.90
15262;DHT22;7733;51.554;13.590;2023-09-19T06:22:49;17.00;99.90
15262;DHT22;7733;51.554;13.590;2023-09-19T06:25:16;17.10;99.90
15262;DHT22;7733;51.554;13.590;2023-09-19T06:27:46;17.10;99.90
15262;DHT22;7733;51.554;13.590;2023-09-19T06:30:18;17.10;99.90
15262;DHT22;7733;51.554;13.590;2023-09-19T06:32:44;17.10;99.90
15262;DHT22;7733;51.554;13.590;2023-09-19T06:35:14;17.20;99.90
15262;DHT22;7733;51.554;13.590;2023-09-19T06:37:41;17.30;99.90
15262;DHT22;7733;51.554;13.590;2023-09-19T06:42:51;17.30;99.90
15262;DHT22;7733;51.554;13.590;2023-09-19T06:45:18;17.30;99.90
15262;DHT22;7733;51.554;13.590;2023-09-19T06:47:45;17.40;99.90
15262;DHT22;7733;51.554;13.590;2023-09-19T06:50:11;17.40;99.90
15262;DHT22;7733;51.554;13.590;2023-09-19T06:52:41;17.40;99.90
15262;DHT22;7733;51.554;13.590;2023-09-19T06:55:07;17.40;99.90
15262;DHT22;7733;51.554;13.590;2023-09-19T06:57:35;17.40;99.90
15262;DHT22;7733;51.554;13.590;2023-09-19T07:00:01;17.50;99.90
15262;DHT22;7733;51.554;13.590;2023-09-19T07:02:28;17.50;99.90
15262;DHT22;7733;51.554;13.590;2023-09-19T07:04:53;17.50;99.90
15262;DHT22;7733;51.554;13.590;2023-09-19T07:07:19;17.60;99.90
15262;DHT22;7733;51.554;13.590;2023-09-19T07:09:45;17.60;99.90
15262;DHT22;7733;51.554;13.590;2023-09-19T07:12:11;17.60;99.90
15262;DHT22;7733;51.554;13.590;2023-09-19T07:14:37;17.70;99.90
15262;DHT22;7733;51.554;13.590;2023-09-19T07:17:03;17.60;99.90
15262;DHT22;7733;51.554;13.590;2023-09-19T07:19:29;17.60;99.90
15262;DHT22;7733;51.554;13.590;2023-09-19T07:21:56;17.60;99.90
15262;DHT22;7733;51.554;13.590;2023-09-19T07:24:24;17.70;99.90
15262;DHT22;7733;51.554;13.590;2023-09-19T07:26:52;17.70;99.90
15262;DHT22;7733;51.554;13.590;2023-09-19T07:29:18;17.80;99.90
15262;DHT22;7733;51.554;13.590;2023-09-19T07:31:44;17.90;99.90
15262;DHT22;7733;51.554;13.590;2023-09-19T07:34:10;17.90;99.90
15262;DHT22;7733;51.554;13.590;2023-09-19T07:36:35;18.00;99.90
15262;DHT22;7733;51.554;13.590;2023-09-19T07:39:04;18.00;99.90
15262;DHT22;7733;51.554;13.590;2023-09-19T07:41:32;18.10;99.90
15262;DHT22;7733;51.554;13.590;2023-09-19T07:43:59;18.20;99.90
15262;DHT22;7733;51.554;13.590;2023-09-19T07:46:25;18.30;99.90
15262;DHT22;7733;51.554;13.590;2023-09-19T07:48:51;18.30;99.90
15262;DHT22;7733;51.554;13.590;2023-09-19T07:51:17;18.40;99.90
15262;DHT22;7733;51.554;13.590;2023-09-19T07:53:43;18.50;99.90
15262;DHT22;7733;51.554;13.590;2023-09-19T07:56:09;18.60;99.90
15262;DHT22;7733;51.554;13.590;2023-09-19T07:58:38;18.60;99.90
15262;DHT22;7733;51.554;13.590;2023-09-19T08:01:07;18.70;99.90
15262;DHT22;7733;51.554;13.590;2023-09-19T08:03:34;18.80;99.90
15262;DHT22;7733;51.554;13.590;2023-09-19T08:06:00;19.10;99.90
15262;DHT22;7733;51.554;13.590;2023-09-19T08:08:27;19.00;99.90
15262;DHT22;7733;51.554;13.590;2023-09-19T08:10:56;19.00;99.90
15262;DHT22;7733;51.554;13.590;2023-09-19T08:13:26;18.90;99.90
15262;DHT22;7733;51.554;13.590;2023-09-19T08:15:52;19.00;99.90
15262;DHT22;7733;51.554;13.590;2023-09-19T08:18:21;19.20;99.90
15262;DHT22;7733;51.554;13.590;2023-09-19T08:20:52;19.30;99.90
15262;DHT22;7733;51.554;13.590;2023-09-19T08:23:18;19.50;99.90
15262;DHT22;7733;51.554;13.590;2023-09-19T08:25:47;19.20;99.90
15262;DHT22;7733;51.554;13.590;2023-09-19T08:28:13;19.10;99.90
15262;DHT22;7733;51.554;13.590;2023-09-19T08:30:45;19.10;99.90
15262;DHT22;7733;51.554;13.590;2023-09-19T08:33:11;19.30;99.90
15262;DHT22;7733;51.554;13.590;2023-09-19T08:35:37;19.20;99.90
15262;DHT22;7733;51.554;13.590;2023-09-19T08:38:05;19.10;99.90
15262;DHT22;7733;51.554;13.590;2023-09-19T08:40:32;19.10;99.90
15262;DHT22;7733;51.554;13.590;2023-09-19T08:43:01;19.10;99.90
15262;DHT22;7733;51.554;13.590;2023-09-19T08:45:28;19.00;99.90
15262;DHT22;7733;51.554;13.590;2023-09-19T08:51:07;18.90;99.90
15262;DHT22;7733;51.554;13.590;2023-09-19T08:56:10;19.20;99.90
15262;DHT22;7733;51.554;13.590;2023-09-19T08:58:45;19.50;99.90
15262;DHT22;7733;51.554;13.590;2023-09-19T09:01:15;19.60;99.90
15262;DHT22;7733;51.554;13.590;2023-09-19T09:03:43;19.90;99.90
15262;DHT22;7733;51.554;13.590;2023-09-19T09:06:14;20.10;99.90
15262;DHT22;7733;51.554;13.590;2023-09-19T09:08:43;20.00;99.90
15262;DHT22;7733;51.554;13.590;2023-09-19T09:11:08;19.80;99.90
15262;DHT22;7733;51.554;13.590;2023-09-19T09:13:36;19.80;99.90
15262;DHT22;7733;51.554;13.590;2023-09-19T09:16:03;20.00;99.90
15262;DHT22;7733;51.554;13.590;2023-09-19T09:18:29;20.20;99.90
15262;DHT22;7733;51.554;13.590;2023-09-19T09:20:55;20.10;99.90
15262;DHT22;7733;51.554;13.590;2023-09-19T09:23:21;20.30;99.90
15262;DHT22;7733;51.554;13.590;2023-09-19T09:25:54;20.80;99.90
15262;DHT22;7733;51.554;13.590;2023-09-19T09:28:33;20.80;99.90
15262;DHT22;7733;51.554;13.590;2023-09-19T09:31:01;20.60;99.90
15262;DHT22;7733;51.554;13.590;2023-09-19T09:33:35;20.40;99.90
15262;DHT22;7733;51.554;13.590;2023-09-19T09:36:02;20.10;99.90
15262;DHT22;7733;51.554;13.590;2023-09-19T09:38:42;20.00;99.90
15262;DHT22;7733;51.554;13.590;2023-09-19T09:41:09;19.90;99.90
15262;DHT22;7733;51.554;13.590;2023-09-19T09:43:38;19.70;99.90
15262;DHT22;7733;51.554;13.590;2023-09-19T09:46:14;19.60;99.90
15262;DHT22;7733;51.554;13.590;2023-09-19T09:49:03;19.50;99.90
15262;DHT22;7733;51.554;13.590;2023-09-19T09:54:25;19.90;99.90
15262;DHT22;7733;51.554;13.590;2023-09-19T09:57:03;20.00;99.90
15262;DHT22;7733;51.554;13.590;2023-09-19T09:59:53;20.10;99.90
15262;DHT22;7733;51.554;13.590;2023-09-19T10:02:30;20.40;99.90
15262;DHT22;7733;51.554;13.590;2023-09-19T10:07:47;20.70;99.90
15262;DHT22;7733;51.554;13.590;2023-09-19T10:10:33;20.60;99.90
15262;DHT22;7733;51.554;13.590;2023-09-19T10:13:10;20.20;99.90
15262;DHT22;7733;51.554;13.590;2023-09-19T10:15:43;20.40;99.90
15262;DHT22;7733;51.554;13.590;2023-09-19T10:18:20;20.20;99.90
15262;DHT22;7733;51.554;13.590;2023-09-19T10:20:47;20.20;99.90
15262;DHT22;7733;51.554;13.590;2023-09-19T10:23:20;20.10;99.90
15262;DHT22;7733;51.554;13.590;2023-09-19T10:25:52;20.20;99.90
15262;DHT22;7733;51.554;13.590;2023-09-19T10:28:19;20.30;99.90
15262;DHT22;7733;51.554;13.590;2023-09-19T10:30:53;20.50;99.90
15262;DHT22;7733;51.554;13.590;2023-09-19T10:33:21;20.50;99.40
15262;DHT22;7733;51.554;13.590;2023-09-19T10:35:51;20.60;99.90
15262;DHT22;7733;51.554;13.590;2023-09-19T10:38:18;20.70;99.80
15262;DHT22;7733;51.554;13.590;2023-09-19T10:40:49;20.70;99.40
15262;DHT22;7733;51.554;13.590;2023-09-19T10:43:21;20.80;97.60
15262;DHT22;7733;51.554;13.590;2023-09-19T10:45:50;20.70;95.60
15262;DHT22;7733;51.554;13.590;2023-09-19T10:48:19;20.50;93.90
15262;DHT22;7733;51.554;13.590;2023-09-19T10:56:27;20.60;93.30
15262;DHT22;7733;51.554;13.590;2023-09-19T10:59:09;20.70;93.20
15262;DHT22;7733;51.554;13.590;2023-09-19T11:01:52;20.80;93.30
15262;DHT22;7733;51.554;13.590;2023-09-19T11:07:07;20.90;93.20
15262;DHT22;7733;51.554;13.590;2023-09-19T11:09:55;20.80;93.10
15262;DHT22;7733;51.554;13.590;2023-09-19T11:15:07;20.90;91.90
15262;DHT22;7733;51.554;13.590;2023-09-19T11:17:35;20.90;92.70
15262;DHT22;7733;51.554;13.590;2023-09-19T11:30:39;21.50;91.30
15262;DHT22;7733;51.554;13.590;2023-09-19T11:33:22;21.30;88.60
15262;DHT22;7733;51.554;13.590;2023-09-19T11:36:12;21.30;88.00
15262;DHT22;7733;51.554;13.590;2023-09-19T11:43:51;21.50;88.00
15262;DHT22;7733;51.554;13.590;2023-09-19T11:46:20;21.90;89.00
15262;DHT22;7733;51.554;13.590;2023-09-19T11:48:51;21.80;83.90
15262;DHT22;7733;51.554;13.590;2023-09-19T11:51:23;21.80;85.40
15262;DHT22;7733;51.554;13.590;2023-09-19T11:53:54;21.50;82.80
15262;DHT22;7733;51.554;13.590;2023-09-19T11:56:26;21.40;83.40
15262;DHT22;7733;51.554;13.590;2023-09-19T11:58:57;21.50;83.60
15262;DHT22;7733;51.554;13.590;2023-09-19T12:01:34;21.40;82.70
15262;DHT22;7733;51.554;13.590;2023-09-19T12:04:02;21.60;84.30
15262;DHT22;7733;51.554;13.590;2023-09-19T12:06:30;21.60;84.10
15262;DHT22;7733;51.554;13.590;2023-09-19T12:08:58;21.50;80.40
15262;DHT22;7733;51.554;13.590;2023-09-19T12:11:28;21.40;81.00
15262;DHT22;7733;51.554;13.590;2023-09-19T12:13:58;21.30;81.00
15262;DHT22;7733;51.554;13.590;2023-09-19T12:16:27;21.40;81.10
15262;DHT22;7733;51.554;13.590;2023-09-19T12:18:57;21.50;81.40
15262;DHT22;7733;51.554;13.590;2023-09-19T12:21:28;21.40;81.00
15262;DHT22;7733;51.554;13.590;2023-09-19T12:26:44;21.60;80.90
15262;DHT22;7733;51.554;13.590;2023-09-19T12:29:17;21.50;80.80
15262;DHT22;7733;51.554;13.590;2023-09-19T12:31:54;21.60;80.40
15262;DHT22;7733;51.554;13.590;2023-09-19T12:34:30;21.50;81.10
15262;DHT22;7733;51.554;13.590;2023-09-19T12:39:53;21.40;80.20
15262;DHT22;7733;51.554;13.590;2023-09-19T12:42:40;21.40;78.50
15262;DHT22;7733;51.554;13.590;2023-09-19T12:45:07;21.60;77.20
15262;DHT22;7733;51.554;13.590;2023-09-19T12:47:39;21.60;76.30
15262;DHT22;7733;51.554;13.590;2023-09-19T12:50:12;21.80;76.30
15262;DHT22;7733;51.554;13.590;2023-09-19T12:52:46;21.40;76.60
15262;DHT22;7733;51.554;13.590;2023-09-19T12:55:40;21.50;77.50
15262;DHT22;7733;51.554;13.590;2023-09-19T12:58:14;21.80;77.10
15262;DHT22;7733;51.554;13.590;2023-09-19T13:00:45;21.80;76.50
15262;DHT22;7733;51.554;13.590;2023-09-19T13:03:33;21.70;75.50
15262;DHT22;7733;51.554;13.590;2023-09-19T13:06:03;21.60;76.70
15262;DHT22;7733;51.554;13.590;2023-09-19T13:08:34;21.70;75.80
15262;DHT22;7733;51.554;13.590;2023-09-19T13:16:20;21.40;76.70
15262;DHT22;7733;51.554;13.590;2023-09-19T13:18:54;21.60;75.30
15262;DHT22;7733;51.554;13.590;2023-09-19T13:21:33;21.50;76.50
15262;DHT22;7733;51.554;13.590;2023-09-19T13:24:22;21.80;76.20
15262;DHT22;7733;51.554;13.590;2023-09-19T13:26:51;21.70;75.20
15262;DHT22;7733;51.554;13.590;2023-09-19T13:29:17;21.70;76.60
15262;DHT22;7733;51.554;13.590;2023-09-19T13:31:53;22.00;77.20
15262;DHT22;7733;51.554;13.590;2023-09-19T13:34:19;22.00;76.10
15262;DHT22;7733;51.554;13.590;2023-09-19T13:36:46;22.10;76.30
15262;DHT22;7733;51.554;13.590;2023-09-19T13:39:14;22.00;77.60
15262;DHT22;7733;51.554;13.590;2023-09-19T13:41:49;22.10;77.60
15262;DHT22;7733;51.554;13.590;2023-09-19T13:44:15;21.90;77.40
15262;DHT22;7733;51.554;13.590;2023-09-19T13:46:42;22.00;78.00
15262;DHT22;7733;51.554;13.590;2023-09-19T13:49:11;22.10;78.60
15262;DHT22;7733;51.554;13.590;2023-09-19T13:51:37;22.00;78.70
15262;DHT22;7733;51.554;13.590;2023-09-19T13:54:03;22.00;77.80
15262;DHT22;7733;51.554;13.590;2023-09-19T13:56:28;21.80;78.10
15262;DHT22;7733;51.554;13.590;2023-09-19T13:58:56;21.80;77.80
15262;DHT22;7733;51.554;13.590;2023-09-19T14:01:22;21.80;78.60
15262;DHT22;7733;51.554;13.590;2023-09-19T14:03:48;21.90;78.40
15262;DHT22;7733;51.554;13.590;2023-09-19T14:06:16;22.10;78.50
15262;DHT22;7733;51.554;13.590;2023-09-19T14:08:42;21.90;78.10
15262;DHT22;7733;51.554;13.590;2023-09-19T14:11:12;21.90;78.00
15262;DHT22;7733;51.554;13.590;2023-09-19T14:13:39;21.90;78.10
15262;DHT22;7733;51.554;13.590;2023-09-19T14:16:06;21.80;79.80
15262;DHT22;7733;51.554;13.590;2023-09-19T14:18:34;21.90;78.90
15262;DHT22;7733;51.554;13.590;2023-09-19T14:21:07;21.80;79.30
15262;DHT22;7733;51.554;13.590;2023-09-19T14:23:37;21.90;80.10
15262;DHT22;7733;51.554;13.590;2023-09-19T14:26:04;21.80;79.90
15262;DHT22;7733;51.554;13.590;2023-09-19T14:28:31;21.80;79.50
15262;DHT22;7733;51.554;13.590;2023-09-19T14:31:12;21.80;79.70
15262;DHT22;7733;51.554;13.590;2023-09-19T14:33:38;21.90;81.10
15262;DHT22;7733;51.554;13.590;2023-09-19T14:36:08;21.70;80.40
15262;DHT22;7733;51.554;13.590;2023-09-19T14:38:36;21.70;80.80
15262;DHT22;7733;51.554;13.590;2023-09-19T14:41:05;21.70;80.70
15262;DHT22;7733;51.554;13.590;2023-09-19T14:43:31;21.70;80.20
15262;DHT22;7733;51.554;13.590;2023-09-19T14:46:07;21.80;80.50
15262;DHT22;7733;51.554;13.590;2023-09-19T14:48:34;21.70;80.80
15262;DHT22;7733;51.554;13.590;2023-09-19T14:51:04;21.80;80.90
15262;DHT22;7733;51.554;13.590;2023-09-19T14:53:31;21.90;80.60
15262;DHT22;7733;51.554;13.590;2023-09-19T14:56:01;22.00;80.30
15262;DHT22;7733;51.554;13.590;2023-09-19T14:58:31;22.00;80.70
15262;DHT22;7733;51.554;13.590;2023-09-19T15:01:08;21.90;80.10
15262;DHT22;7733;51.554;13.590;2023-09-19T15:03:39;22.00;80.00
15262;DHT22;7733;51.554;13.590;2023-09-19T15:06:07;22.00;79.90
15262;DHT22;7733;51.554;13.590;2023-09-19T15:08:36;22.10;79.50
15262;DHT22;7733;51.554;13.590;2023-09-19T15:11:06;22.20;80.40
15262;DHT22;7733;51.554;13.590;2023-09-19T15:13:33;22.20;79.50
15262;DHT22;7733;51.554;13.590;2023-09-19T15:16:08;22.20;79.00
15262;DHT22;7733;51.554;13.590;2023-09-19T15:18:35;22.30;79.80
15262;DHT22;7733;51.554;13.590;2023-09-19T15:21:03;22.50;79.80
15262;DHT22;7733;51.554;13.590;2023-09-19T15:23:30;22.40;78.50
15262;DHT22;7733;51.554;13.590;2023-09-19T15:26:12;22.30;78.80
15262;DHT22;7733;51.554;13.590;2023-09-19T15:28:42;22.20;78.50
15262;DHT22;7733;51.554;13.590;2023-09-19T15:31:10;22.20;79.10
15262;DHT22;7733;51.554;13.590;2023-09-19T15:33:37;22.20;79.30
15262;DHT22;7733;51.554;13.590;2023-09-19T15:38:59;22.30;79.50
15262;DHT22;7733;51.554;13.590;2023-09-19T15:41:33;22.20;79.00
15262;DHT22;7733;51.554;13.590;2023-09-19T15:44:01;22.30;80.50
15262;DHT22;7733;51.554;13.590;2023-09-19T15:46:29;22.30;80.50
15262;DHT22;7733;51.554;13.590;2023-09-19T15:48:57;22.30;80.00
15262;DHT22;7733;51.554;13.590;2023-09-19T15:51:24;22.30;80.90
15262;DHT22;7733;51.554;13.590;2023-09-19T15:53:53;22.30;80.60
15262;DHT22;7733;51.554;13.590;2023-09-19T15:56:22;22.30;80.50
15262;DHT22;7733;51.554;13.590;2023-09-19T15:58:50;22.30;81.50
15262;DHT22;7733;51.554;13.590;2023-09-19T16:01:17;22.40;80.40
15262;DHT22;7733;51.554;13.590;2023-09-19T16:03:46;22.20;81.00
15262;DHT22;7733;51.554;13.590;2023-09-19T16:06:18;22.00;81.70
15262;DHT22;7733;51.554;13.590;2023-09-19T16:08:48;22.10;81.60
15262;DHT22;7733;51.554;13.590;2023-09-19T16:11:15;22.10;80.70
15262;DHT22;7733;51.554;13.590;2023-09-19T16:13:42;22.00;81.10
15262;DHT22;7733;51.554;13.590;2023-09-19T16:16:11;21.90;82.10
15262;DHT22;7733;51.554;13.590;2023-09-19T16:21:18;21.60;82.20
15262;DHT22;7733;51.554;13.590;2023-09-19T16:23:50;21.80;82.00
15262;DHT22;7733;51.554;13.590;2023-09-19T16:26:17;21.90;82.60
15262;DHT22;7733;51.554;13.590;2023-09-19T16:28:47;21.80;83.10
15262;DHT22;7733;51.554;13.590;2023-09-19T16:31:16;21.80;83.10
15262;DHT22;7733;51.554;13.590;2023-09-19T16:33:43;21.60;82.80
15262;DHT22;7733;51.554;13.590;2023-09-19T16:36:14;21.70;83.20
15262;DHT22;7733;51.554;13.590;2023-09-19T16:38:46;21.60;83.30
15262;DHT22;7733;51.554;13.590;2023-09-19T16:41:13;21.60;83.60
15262;DHT22;7733;51.554;13.590;2023-09-19T16:43:40;21.60;83.80
15262;DHT22;7733;51.554;13.590;2023-09-19T16:46:10;21.60;84.10
15262;DHT22;7733;51.554;13.590;2023-09-19T16:48:40;21.60;84.30
15262;DHT22;7733;51.554;13.590;2023-09-19T16:51:10;21.50;84.80
15262;DHT22;7733;51.554;13.590;2023-09-19T16:53:37;21.40;85.50
15262;DHT22;7733;51.554;13.590;2023-09-19T16:56:05;21.30;85.70
15262;DHT22;7733;51.554;13.590;2023-09-19T16:58:34;21.30;86.10
15262;DHT22;7733;51.554;13.590;2023-09-19T17:01:01;21.30;85.80
15262;DHT22;7733;51.554;13.590;2023-09-19T17:03:27;21.10;85.60
15262;DHT22;7733;51.554;13.590;2023-09-19T17:05:57;21.00;86.10
15262;DHT22;7733;51.554;13.590;2023-09-19T17:08:27;20.90;86.20